Time;durP1;ratioP1;P1;durP2;ratioP2;P2;SDS_P1;SDS_P2;PMS_P1;PMS_P2;Temp;Humidity;BMP_temperature;BMP_pressure;BME280_temperature;BME280_humidity;BME280_pressure;Samples;Min_cycle;Max_cycle;Signal;HPM_P1;HPM_P2
2022/10/04 00:00:40;;;;;;;2.85;0.50;;;22.00;48.90;;;;;;6294589;28;20032;-67
2022/10/04 00:03:48;;;;;;;0.60;0.40;;;22.00;48.80;;;;;;6293367;28;20119;-66
2022/10/04 00:07:12;;;;;;;1.05;0.40;;;22.00;48.80;;;;;;6294679;28;20032;-66
2022/10/04 00:10:20;;;;;;;0.60;0.30;;;22.00;48.70;;;;;;6294248;28;20019;-66
2022/10/04 00:13:24;;;;;;;1.70;0.50;;;22.00;48.70;;;;;;6294463;28;20020;-66
2022/10/04 00:16:30;;;;;;;0.82;0.40;;;22.00;48.70;;;;;;6294264;28;20081;-67
2022/10/04 00:19:46;;;;;;;1.70;0.40;;;21.90;48.60;;;;;;6294500;28;20070;-66
2022/10/04 00:23:22;;;;;;;0.30;0.30;;;21.90;48.50;;;;;;6292876;28;20032;-66
2022/10/04 00:26:22;;;;;;;0.68;0.43;;;22.00;48.70;;;;;;6293961;28;20025;-66
2022/10/04 00:29:31;;;;;;;0.68;0.30;;;22.00;48.70;;;;;;6292547;28;20043;-67
2022/10/04 00:32:38;;;;;;;0.60;0.40;;;22.00;48.70;;;;;;6294030;28;20554;-66
2022/10/04 00:35:38;;;;;;;0.70;0.40;;;22.00;48.70;;;;;;6293771;28;20028;-66
2022/10/04 00:38:39;;;;;;;1.33;0.50;;;22.00;48.70;;;;;;6292631;28;20024;-66
2022/10/04 00:41:56;;;;;;;0.35;0.30;;;21.90;48.50;;;;;;6293875;28;20021;-67
2022/10/04 00:45:26;;;;;;;0.30;0.30;;;21.90;48.40;;;;;;6287924;28;20025;-67
2022/10/04 00:48:48;;;;;;;1.13;0.30;;;21.90;48.60;;;;;;6292657;28;20604;-66
2022/10/04 00:51:57;;;;;;;0.98;0.40;;;22.00;48.70;;;;;;6293443;28;20040;-67
2022/10/04 00:55:05;;;;;;;0.47;0.40;;;22.00;48.60;;;;;;6292974;28;20048;-66
2022/10/04 00:58:24;;;;;;;0.82;0.40;;;21.90;48.50;;;;;;6293721;28;20024;-66
2022/10/04 01:01:27;;;;;;;0.80;0.35;;;21.90;48.50;;;;;;6291965;28;20035;-66
2022/10/04 01:04:46;;;;;;;0.73;0.40;;;21.90;48.60;;;;;;6293078;28;20074;-67
2022/10/04 01:07:52;;;;;;;1.17;0.43;;;21.90;48.60;;;;;;6291658;28;20446;-66
2022/10/04 01:11:13;;;;;;;;;;;21.90;48.50;;;;;;6293365;28;20079;-67
2022/10/04 01:14:34;;;;;;;1.17;0.30;;;21.90;48.50;;;;;;6292958;28;20356;-66
2022/10/04 01:17:35;;;;;;;0.85;0.30;;;21.90;48.50;;;;;;6292565;28;20040;-67
2022/10/04 01:20:47;;;;;;;0.98;0.40;;;21.90;48.60;;;;;;6292460;28;20129;-67
2022/10/04 01:23:51;;;;;;;1.23;0.40;;;21.90;48.60;;;;;;6292549;28;20094;-67
2022/10/04 01:26:51;;;;;;;1.02;0.47;;;21.90;48.50;;;;;;6292553;28;20103;-66
2022/10/04 01:29:52;;;;;;;0.98;0.43;;;21.90;48.40;;;;;;6292969;28;20035;-67
2022/10/04 01:32:53;;;;;;;0.60;0.30;;;21.90;48.50;;;;;;6292784;28;20282;-66
2022/10/04 01:35:54;;;;;;;0.75;0.40;;;21.90;48.40;;;;;;6292305;28;20431;-67
2022/10/04 01:38:55;;;;;;;0.47;0.28;;;21.90;48.40;;;;;;6292496;28;20023;-67
2022/10/04 01:42:08;;;;;;;0.50;0.30;;;21.90;48.40;;;;;;6292422;28;20541;-67
2022/10/04 01:45:22;;;;;;;0.55;0.20;;;21.90;48.50;;;;;;6284010;28;20029;-66
2022/10/04 01:48:28;;;;;;;1.70;0.50;;;21.90;48.40;;;;;;6288752;28;20048;-67
2022/10/04 01:51:33;;;;;;;0.82;0.43;;;21.90;48.40;;;;;;6290819;28;20035;-67
2022/10/04 01:54:36;;;;;;;;;;;21.90;48.40;;;;;;6291094;28;20032;-66
2022/10/04 01:57:43;;;;;;;0.60;0.30;;;21.90;48.40;;;;;;6291981;28;19918;-67
2022/10/04 02:00:50;;;;;;;1.73;0.43;;;21.90;48.40;;;;;;6291536;28;20031;-67
2022/10/04 02:04:09;;;;;;;1.20;0.40;;;21.90;48.40;;;;;;6291888;28;20385;-66
2022/10/04 02:07:12;;;;;;;0.50;0.20;;;21.90;48.40;;;;;;6292092;28;20017;-66
2022/10/04 02:10:18;;;;;;;0.80;0.43;;;21.90;48.30;;;;;;6291714;28;20028;-67
2022/10/04 02:13:21;;;;;;;1.38;0.35;;;21.90;48.30;;;;;;6291859;28;20023;-67
2022/10/04 02:16:23;;;;;;;0.73;0.30;;;21.90;48.20;;;;;;6291405;28;20033;-66
2022/10/04 02:19:34;;;;;;;0.73;0.50;;;21.90;48.30;;;;;;6292056;28;20046;-67
2022/10/04 02:22:35;;;;;;;0.35;0.32;;;21.90;48.30;;;;;;6291586;28;20029;-67
2022/10/04 02:25:37;;;;;;;0.52;0.38;;;21.90;48.40;;;;;;6291827;28;20435;-67
2022/10/04 02:28:38;;;;;;;0.93;0.47;;;21.90;48.30;;;;;;6291727;28;20358;-67
2022/10/04 02:34:58;;;;;;;0.20;0.20;;;21.90;48.40;;;;;;6291609;28;20028;-67
2022/10/04 02:38:13;;;;;;;0.60;0.30;;;21.90;48.50;;;;;;6291530;28;20122;-67
2022/10/04 02:41:28;;;;;;;0.40;0.20;;;21.90;48.20;;;;;;6291781;28;20541;-67
2022/10/04 02:44:40;;;;;;;0.20;0.10;;;21.90;48.20;;;;;;6287780;28;20025;-67
2022/10/04 02:47:54;;;;;;;1.60;0.47;;;21.90;48.30;;;;;;6272021;28;20152;-67
2022/10/04 02:51:05;;;;;;;0.43;0.20;;;21.90;48.20;;;;;;6291636;28;20109;-67
2022/10/04 02:54:26;;;;;;;0.32;0.20;;;21.90;48.20;;;;;;6291861;28;20032;-67
2022/10/04 02:57:28;;;;;;;0.68;0.20;;;21.90;48.20;;;;;;6289863;28;20021;-67
2022/10/04 03:00:30;;;;;;;0.30;0.20;;;21.90;49.00;;;;;;6291548;28;20370;-67
2022/10/04 03:03:46;;;;;;;0.77;0.20;;;21.90;48.20;;;;;;6291074;28;20548;-67
2022/10/04 03:06:47;;;;;;;0.28;0.20;;;21.90;48.20;;;;;;6289953;28;20028;-67
2022/10/04 03:09:49;;;;;;;0.40;0.30;;;21.90;48.10;;;;;;6291090;28;20098;-67
2022/10/04 03:12:51;;;;;;;0.98;0.25;;;21.90;48.20;;;;;;6293980;28;20489;-67
2022/10/04 03:15:52;;;;;;;0.80;0.30;;;21.90;48.10;;;;;;6295710;28;20024;-67
2022/10/04 03:18:56;;;;;;;0.55;0.40;;;21.90;48.20;;;;;;6293987;28;20017;-67
2022/10/04 03:22:10;;;;;;;0.45;0.30;;;21.90;48.10;;;;;;6294438;28;20020;-67
2022/10/04 03:25:16;;;;;;;0.30;0.30;;;21.90;48.20;;;;;;6293786;28;20035;-67
2022/10/04 03:28:16;;;;;;;0.75;0.20;;;21.90;48.30;;;;;;6295482;28;20036;-67
2022/10/04 03:31:18;;;;;;;0.20;0.20;;;21.90;48.10;;;;;;6295625;28;20488;-67
2022/10/04 03:34:26;;;;;;;0.88;0.30;;;21.90;48.20;;;;;;6293722;28;20024;-67
2022/10/04 03:37:31;;;;;;;0.65;0.30;;;21.90;48.10;;;;;;6294041;28;20499;-67
2022/10/04 03:40:32;;;;;;;1.27;0.43;;;21.90;48.30;;;;;;6295050;28;20013;-68
2022/10/04 03:43:40;;;;;;;1.58;0.30;;;21.90;48.10;;;;;;6295131;28;20490;-66
2022/10/04 03:46:42;;;;;;;1.10;0.63;;;21.90;48.10;;;;;;6272731;28;20557;-67
2022/10/04 03:49:44;;;;;;;1.15;0.35;;;21.90;48.10;;;;;;6285337;28;20047;-67
2022/10/04 03:52:52;;;;;;;0.82;0.38;;;21.90;48.10;;;;;;6294668;28;20154;-67
2022/10/04 03:55:53;;;;;;;1.00;0.30;;;21.90;48.00;;;;;;6294625;28;20036;-67
2022/10/04 03:58:54;;;;;;;0.93;0.40;;;21.90;48.10;;;;;;6294821;28;20024;-67
2022/10/04 04:02:16;;;;;;;0.80;0.30;;;21.90;47.90;;;;;;6294771;28;20028;-67
2022/10/04 04:05:30;;;;;;;0.95;0.35;;;21.90;48.10;;;;;;6293554;28;20099;-67
2022/10/04 04:08:39;;;;;;;0.60;0.30;;;21.90;48.10;;;;;;6294669;28;20021;-67
2022/10/04 04:11:41;;;;;;;0.30;0.20;;;21.90;48.10;;;;;;6294191;28;20093;-67
2022/10/04 04:14:42;;;;;;;0.65;0.22;;;21.90;48.00;;;;;;6294127;28;20555;-67
2022/10/04 04:17:45;;;;;;;0.40;0.20;;;21.90;48.00;;;;;;6292815;28;20040;-67
2022/10/04 04:20:50;;;;;;;0.50;0.30;;;21.90;48.10;;;;;;6294303;28;20021;-67
2022/10/04 04:24:00;;;;;;;0.30;0.22;;;21.90;48.10;;;;;;6293252;28;20393;-67
2022/10/04 04:27:04;;;;;;;1.33;0.60;;;21.90;47.90;;;;;;6293943;28;20090;-67
2022/10/04 04:30:06;;;;;;;3.08;0.30;;;21.90;48.00;;;;;;6294173;28;20024;-67
2022/10/04 04:33:13;;;;;;;0.30;0.25;;;21.90;48.00;;;;;;6294299;28;20021;-67
2022/10/04 04:36:16;;;;;;;0.30;0.30;;;21.90;48.10;;;;;;6293674;28;20020;-67
2022/10/04 04:42:39;;;;;;;1.10;0.40;;;21.90;47.90;;;;;;6294120;28;20517;-67
2022/10/04 04:45:40;;;;;;;1.08;0.40;;;21.90;47.90;;;;;;6280960;28;20087;-67
2022/10/04 04:48:45;;;;;;;0.40;0.20;;;21.90;48.10;;;;;;6277406;28;20063;-67
2022/10/04 04:51:50;;;;;;;0.50;0.30;;;21.90;48.00;;;;;;6292201;28;20028;-67
2022/10/04 04:54:51;;;;;;;0.40;0.20;;;21.90;47.90;;;;;;6291805;28;20040;-67
2022/10/04 04:57:55;;;;;;;0.30;0.20;;;21.90;48.00;;;;;;6292311;28;20037;-67
2022/10/04 05:01:00;;;;;;;0.52;0.20;;;21.90;48.10;;;;;;6290491;28;20041;-67
2022/10/04 05:04:12;;;;;;;0.68;0.32;;;21.90;48.10;;;;;;6268626;28;20021;-67
2022/10/04 05:07:18;;;;;;;0.50;0.30;;;21.90;47.90;;;;;;6268458;28;20525;-68
2022/10/04 05:10:20;;;;;;;0.38;0.30;;;21.90;48.00;;;;;;6276115;28;20044;-67
2022/10/04 05:13:24;;;;;;;0.43;0.20;;;21.90;48.00;;;;;;6291667;28;20103;-67
2022/10/04 05:16:42;;;;;;;0.63;0.20;;;21.90;48.00;;;;;;6293045;28;20108;-67
2022/10/04 05:19:42;;;;;;;0.65;0.30;;;21.90;47.90;;;;;;6292928;28;20074;-67
2022/10/04 05:22:48;;;;;;;0.77;0.30;;;21.90;47.90;;;;;;6291210;28;20029;-67
2022/10/04 05:25:49;;;;;;;1.08;0.28;;;21.90;47.80;;;;;;6292535;28;20090;-67
2022/10/04 05:28:50;;;;;;;0.52;0.20;;;21.90;47.80;;;;;;6292776;28;20056;-67
2022/10/04 05:32:04;;;;;;;0.77;0.20;;;21.90;47.80;;;;;;6292624;28;20043;-67
2022/10/04 05:35:18;;;;;;;0.52;0.20;;;21.90;48.00;;;;;;6292912;28;20486;-67
2022/10/04 05:38:30;;;;;;;0.35;0.20;;;21.90;47.90;;;;;;6291430;28;20047;-67
2022/10/04 05:41:55;;;;;;;0.88;0.30;;;21.90;48.00;;;;;;6292331;28;20390;-67
2022/10/04 05:44:57;;;;;;;4.07;0.40;;;21.90;48.00;;;;;;6287551;28;20032;-67
2022/10/04 05:48:00;;;;;;;0.65;0.30;;;21.90;47.80;;;;;;6292044;28;20406;-67
2022/10/04 05:51:01;;;;;;;0.82;0.35;;;21.90;47.90;;;;;;6290724;28;20123;-67
2022/10/04 05:54:03;;;;;;;0.38;0.20;;;21.90;47.80;;;;;;6292043;28;20034;-67
2022/10/04 05:57:36;;;;;;;1.20;0.30;;;21.90;47.70;;;;;;6292326;28;20082;-67
2022/10/04 06:00:59;;;;;;;3.60;0.32;;;21.90;47.80;;;;;;6275902;28;20029;-68
2022/10/04 06:04:28;;;;;;;0.80;0.30;;;21.90;47.90;;;;;;6279592;28;20111;-68
2022/10/04 06:07:35;;;;;;;1.05;0.38;;;21.90;47.80;;;;;;6283551;28;20464;-68
2022/10/04 06:10:42;;;;;;;2.58;0.47;;;21.90;47.80;;;;;;6281428;28;20024;-69
2022/10/04 06:13:54;;;;;;;1.65;0.32;;;22.00;47.80;;;;;;6294513;28;20078;-67
2022/10/04 06:17:07;;;;;;;4.35;0.50;;;22.00;47.70;;;;;;6291688;28;20028;-68
2022/10/04 06:20:23;;;;;;;1.65;0.38;;;22.00;47.40;;;;;;6275164;28;20016;-68
2022/10/04 06:23:28;;;;;;;1.23;0.30;;;22.00;47.50;;;;;;6295607;28;20028;-68
2022/10/04 06:26:39;;;;;;;1.48;0.30;;;22.00;47.50;;;;;;6295473;28;20114;-67
2022/10/04 06:29:58;;;;;;;1.58;0.52;;;22.00;47.10;;;;;;6294987;28;20021;-71
2022/10/04 06:33:28;;;;;;;2.00;1.08;;;22.10;46.90;;;;;;6293712;28;20020;-70
2022/10/04 06:36:40;;;;;;;6.00;1.83;;;22.20;47.00;;;;;;6293696;28;20028;-70
2022/10/04 06:40:15;;;;;;;6.85;2.58;;;22.20;47.00;;;;;;6293738;28;20013;-71
2022/10/04 06:43:19;;;;;;;4.28;2.33;;;22.20;47.10;;;;;;6293551;28;20024;-71
2022/10/04 06:46:30;;;;;;;5.75;2.30;;;22.10;47.10;;;;;;6296697;28;20082;-70
2022/10/04 06:49:58;;;;;;;8.77;3.72;;;22.20;47.00;;;;;;6299944;28;20135;-67
2022/10/04 06:53:24;;;;;;;13.90;4.82;;;22.20;47.00;;;;;;6275986;28;20060;-67
2022/10/04 06:56:49;;;;;;;11.10;4.22;;;22.10;48.30;;;;;;6298127;28;20024;-67
2022/10/04 07:00:08;;;;;;;9.95;4.38;;;22.00;48.80;;;;;;6299433;28;20106;-67
2022/10/04 07:03:13;;;;;;;12.02;4.55;;;21.90;49.10;;;;;;6299007;28;20028;-67
2022/10/04 07:06:14;;;;;;;;;;;21.90;49.50;;;;;;6298129;28;20027;-67
2022/10/04 07:09:24;;;;;;;17.83;4.40;;;21.90;49.70;;;;;;6298998;28;19904;-67
2022/10/04 07:12:26;;;;;;;13.38;4.53;;;21.90;49.90;;;;;;6299008;28;20024;-67
2022/10/04 07:15:33;;;;;;;14.55;4.03;;;21.80;49.90;;;;;;6300411;28;20112;-67
2022/10/04 07:18:48;;;;;;;10.30;4.15;;;21.80;50.20;;;;;;6323844;28;20496;-67
2022/10/04 07:21:51;;;;;;;9.45;3.30;;;21.80;50.20;;;;;;6311403;28;20024;-67
2022/10/04 07:25:26;;;;;;;9.30;3.72;;;21.80;50.70;;;;;;6302973;28;20107;-66
2022/10/04 07:32:08;;;;;;;11.68;3.53;;;21.80;50.70;;;;;;6308947;28;20027;-67
2022/10/04 07:35:09;;;;;;;9.07;3.55;;;21.70;50.70;;;;;;6322412;28;20024;-67
2022/10/04 07:38:27;;;;;;;14.60;4.00;;;21.70;50.90;;;;;;6303619;28;20066;-67
2022/10/04 07:41:50;;;;;;;9.38;3.17;;;21.70;50.90;;;;;;6298156;28;20016;-67
2022/10/04 07:45:04;;;;;;;7.60;3.40;;;21.70;51.00;;;;;;6298357;28;20013;-67
2022/10/04 07:48:08;;;;;;;7.90;3.10;;;21.60;51.20;;;;;;6316138;28;20509;-67
2022/10/04 07:51:30;;;;;;;10.05;3.38;;;21.60;51.10;;;;;;6323086;28;20059;-66
2022/10/04 07:54:55;;;;;;;8.40;3.08;;;21.60;51.30;;;;;;6291542;28;20029;-67
2022/10/04 07:57:59;;;;;;;7.40;3.58;;;21.60;51.40;;;;;;6287663;28;20036;-67
2022/10/04 08:01:19;;;;;;;7.07;2.87;;;21.60;51.50;;;;;;6296787;28;20564;-67
2022/10/04 08:04:46;;;;;;;7.47;3.15;;;21.60;51.50;;;;;;6285136;28;20075;-67
2022/10/04 08:08:00;;;;;;;7.60;2.22;;;21.60;51.60;;;;;;6296524;28;20026;-67
2022/10/04 08:11:04;;;;;;;7.70;3.00;;;21.60;51.60;;;;;;6296400;28;20119;-67
2022/10/04 08:14:16;;;;;;;5.68;2.47;;;21.60;51.80;;;;;;6296250;28;20393;-66
2022/10/04 08:17:40;;;;;;;8.60;2.90;;;21.60;51.80;;;;;;6297610;28;20020;-67
2022/10/04 08:21:07;;;;;;;5.80;2.53;;;21.50;51.70;;;;;;6297260;28;20036;-67
2022/10/04 08:24:27;;;;;;;7.13;2.80;;;21.60;51.70;;;;;;6297615;28;20021;-69
2022/10/04 08:31:27;;;;;;;4.40;2.30;;;21.70;51.50;;;;;;6297227;28;20066;-68
2022/10/04 08:35:00;;;;;;;6.05;2.47;;;21.70;51.40;;;;;;6322129;28;20509;-67
2022/10/04 08:38:07;;;;;;;5.90;2.40;;;21.70;51.50;;;;;;6307871;28;20020;-67
2022/10/04 08:41:46;;;;;;;52.97;4.28;;;21.70;51.50;;;;;;6297154;28;20559;-67
2022/10/04 08:44:59;;;;;;;13.88;2.90;;;21.70;52.30;;;;;;6271034;28;20063;-67
2022/10/04 08:48:37;;;;;;;88.88;8.63;;;21.70;51.70;;;;;;6281436;28;20443;-67
2022/10/04 08:52:09;;;;;;;30.63;3.90;;;21.70;52.00;;;;;;6296575;28;20048;-67
2022/10/04 08:55:49;;;;;;;17.63;2.92;;;21.70;51.90;;;;;;6294828;28;20534;-68
2022/10/04 08:59:31;;;;;;;12.48;3.05;;;21.70;51.80;;;;;;6295222;28;20032;-67
2022/10/04 09:02:39;;;;;;;9.43;2.45;;;21.70;51.70;;;;;;6295242;28;20103;-74
2022/10/04 09:05:58;;;;;;;16.85;2.40;;;21.70;51.70;;;;;;6293155;28;20052;-67
2022/10/04 09:09:17;;;;;;;10.85;2.40;;;21.70;51.80;;;;;;6294853;28;20062;-67
2022/10/04 09:12:43;;;;;;;6.85;2.72;;;21.70;51.90;;;;;;6296283;28;20025;-66
2022/10/04 09:15:51;;;;;;;;;;;21.70;52.00;;;;;;6296245;28;20024;-67
2022/10/04 09:19:06;;;;;;;6.35;2.10;;;21.60;52.00;;;;;;6295969;28;19955;-67
2022/10/04 09:22:19;;;;;;;;;;;21.60;52.00;;;;;;6296717;28;20028;-67
2022/10/04 09:25:55;;;;;;;5.35;2.10;;;21.60;52.10;;;;;;6295514;28;19980;-67
2022/10/04 09:28:58;;;;;;;8.93;2.37;;;21.60;52.10;;;;;;6294384;28;20482;-67
2022/10/04 09:32:24;;;;;;;5.15;2.05;;;21.60;52.20;;;;;;6295763;28;20281;-67
2022/10/04 09:36:02;;;;;;;5.28;1.80;;;21.60;52.10;;;;;;6307463;28;20385;-67
2022/10/04 09:39:20;;;;;;;4.65;1.92;;;21.60;52.30;;;;;;6295504;28;20020;-67
2022/10/04 09:42:41;;;;;;;4.68;1.80;;;21.50;52.20;;;;;;6295918;28;20028;-67
2022/10/04 09:46:00;;;;;;;5.32;1.83;;;21.50;52.30;;;;;;6295466;28;20033;-67
2022/10/04 09:49:26;;;;;;;4.88;1.80;;;21.60;52.40;;;;;;6285663;28;20048;-67
2022/10/04 09:52:45;;;;;;;7.75;2.10;;;21.60;52.30;;;;;;6295228;28;20078;-67
2022/10/04 09:56:17;;;;;;;6.47;2.05;;;21.50;52.50;;;;;;6314504;28;20032;-68
2022/10/04 09:59:31;;;;;;;5.13;1.75;;;21.60;52.80;;;;;;6310215;28;20071;-67
2022/10/04 10:02:56;;;;;;;5.18;1.98;;;21.70;52.70;;;;;;6295059;28;20051;-67
2022/10/04 10:06:12;;;;;;;4.70;1.70;;;21.70;52.50;;;;;;6297093;28;20029;-67
2022/10/04 10:13:38;;;;;;;7.50;2.00;;;21.80;52.40;;;;;;6294933;28;20033;-67
2022/10/04 10:16:59;;;;;;;3.58;1.70;;;21.90;52.30;;;;;;6294199;28;20028;-67
2022/10/04 10:20:26;;;;;;;4.78;2.00;;;21.90;52.40;;;;;;6306773;28;20104;-68
2022/10/04 10:23:55;;;;;;;5.70;1.98;;;21.90;52.40;;;;;;6317943;28;20459;-67
2022/10/04 10:27:12;;;;;;;5.65;2.10;;;21.80;52.50;;;;;;6297714;28;20063;-67
2022/10/04 10:30:18;;;;;;;14.75;2.20;;;21.90;52.50;;;;;;6306382;28;20024;-68
2022/10/04 10:33:51;;;;;;;6.28;1.90;;;21.90;52.70;;;;;;6319025;28;20020;-67
2022/10/04 10:37:21;;;;;;;4.20;1.80;;;21.90;52.50;;;;;;6294324;28;20477;-66
2022/10/04 10:40:30;;;;;;;11.77;2.03;;;22.00;52.30;;;;;;6294385;28;20013;-67
2022/10/04 10:44:06;;;;;;;6.25;1.90;;;22.00;52.40;;;;;;6294537;28;20404;-68
2022/10/04 10:47:46;;;;;;;8.63;1.77;;;21.90;52.40;;;;;;6307055;28;20405;-67
2022/10/04 10:51:19;;;;;;;3.78;1.45;;;22.00;52.90;;;;;;6292712;28;20035;-68
2022/10/04 10:54:51;;;;;;;3.83;1.52;;;22.00;52.80;;;;;;6272566;28;20079;-67
2022/10/04 10:58:14;;;;;;;4.75;1.40;;;21.90;53.10;;;;;;6294647;28;20033;-67
2022/10/04 11:01:41;;;;;;;4.18;2.03;;;22.00;52.70;;;;;;6310370;28;20032;-67
2022/10/04 11:04:48;;;;;;;7.95;1.90;;;22.10;52.80;;;;;;6318633;28;20084;-67
2022/10/04 11:08:28;;;;;;;7.85;1.98;;;22.20;52.70;;;;;;6319307;28;20024;-67
2022/10/04 11:11:48;;;;;;;11.15;2.00;;;22.30;52.40;;;;;;6290475;28;20452;-68
2022/10/04 11:15:15;;;;;;;9.77;2.67;;;22.40;52.40;;;;;;6293807;28;20025;-67
2022/10/04 11:18:39;;;;;;;9.38;2.45;;;22.40;52.30;;;;;;6294185;28;20024;-66
2022/10/04 11:22:03;;;;;;;9.13;2.80;;;22.40;52.30;;;;;;6311819;28;20481;-66
2022/10/04 11:25:07;;;;;;;14.02;3.00;;;22.40;52.00;;;;;;6315353;28;20261;-68
2022/10/04 11:28:45;;;;;;;15.95;3.10;;;22.50;52.20;;;;;;6292037;28;20039;-68
2022/10/04 11:31:55;;;;;;;9.30;2.75;;;22.50;52.10;;;;;;6293007;28;20074;-67
2022/10/04 11:35:01;;;;;;;8.02;2.80;;;22.60;52.10;;;;;;6295896;28;20023;-67
2022/10/04 11:38:26;;;;;;;17.50;3.25;;;22.60;51.80;;;;;;6297881;28;20493;-67
2022/10/04 11:41:44;;;;;;;12.30;3.67;;;22.70;52.00;;;;;;6297154;28;20020;-67
2022/10/04 11:45:16;;;;;;;12.63;4.10;;;22.70;51.80;;;;;;6313949;28;20023;-67
2022/10/04 11:48:53;;;;;;;13.05;3.63;;;22.70;51.90;;;;;;6295693;28;20044;-67
2022/10/04 11:52:22;;;;;;;10.98;3.65;;;22.70;52.10;;;;;;6301699;28;20082;-68
2022/10/04 11:55:44;;;;;;;12.82;3.75;;;22.70;51.80;;;;;;6274087;28;20074;-67
2022/10/04 11:59:17;;;;;;;11.02;3.33;;;22.70;52.10;;;;;;6297290;28;20158;-67
2022/10/04 12:02:27;;;;;;;17.20;4.75;;;22.70;52.10;;;;;;6296368;28;20024;-67
2022/10/04 12:05:49;;;;;;;18.45;4.35;;;22.80;52.20;;;;;;6296151;28;20028;-67
2022/10/04 12:08:50;;;;;;;16.83;4.53;;;22.70;52.20;;;;;;6296011;28;20730;-67
2022/10/04 12:12:35;;;;;;;21.23;3.72;;;22.70;52.30;;;;;;6295903;28;20032;-67
2022/10/04 12:15:55;;;;;;;15.48;3.97;;;22.60;52.20;;;;;;6297858;28;20154;-67
2022/10/04 12:19:08;;;;;;;18.13;3.50;;;22.60;52.70;;;;;;6296805;28;20020;-68
2022/10/04 12:22:40;;;;;;;15.30;4.15;;;22.50;52.50;;;;;;6288089;28;20086;-67
2022/10/04 12:26:06;;;;;;;15.63;3.75;;;22.50;52.50;;;;;;6278463;28;20545;-67
2022/10/04 12:29:23;;;;;;;;;;;22.50;52.60;;;;;;6295563;28;20033;-67
2022/10/04 12:32:34;;;;;;;10.70;3.33;;;22.60;52.40;;;;;;6286547;28;19913;-67
2022/10/04 12:35:56;;;;;;;9.77;3.50;;;22.50;52.60;;;;;;6288819;28;20032;-67
2022/10/04 12:39:27;;;;;;;14.77;4.22;;;22.50;52.60;;;;;;6269939;28;20025;-67
2022/10/04 12:42:38;;;;;;;10.18;3.15;;;22.60;52.40;;;;;;6284692;28;20533;-66
2022/10/04 12:46:03;;;;;;;8.45;3.05;;;22.60;52.60;;;;;;6295768;28;20033;-67
2022/10/04 12:49:33;;;;;;;12.53;3.57;;;22.60;52.40;;;;;;6296136;28;20053;-67
2022/10/04 12:52:53;;;;;;;10.05;2.75;;;22.60;52.60;;;;;;6296197;28;20024;-67
2022/10/04 12:56:06;;;;;;;9.32;3.35;;;22.50;52.60;;;;;;6271632;28;20025;-67
2022/10/04 12:59:31;;;;;;;10.10;3.40;;;22.50;52.70;;;;;;6269997;28;20104;-68
2022/10/04 13:02:35;;;;;;;;;;;22.50;52.70;;;;;;6281962;28;20104;-67
2022/10/04 13:06:09;;;;;;;9.43;2.83;;;22.50;52.50;;;;;;6295955;28;19928;-68
2022/10/04 13:09:35;;;;;;;14.57;3.08;;;22.50;52.60;;;;;;6295908;28;20274;-67
2022/10/04 13:12:55;;;;;;;17.80;3.05;;;22.50;52.50;;;;;;6296815;28;20098;-67
2022/10/04 13:16:21;;;;;;;70.38;14.05;;;22.50;52.40;;;;;;6295519;28;20028;-67
2022/10/04 13:19:40;;;;;;;182.98;32.47;;;22.50;52.30;;;;;;6269802;28;20032;-67
2022/10/04 13:22:46;;;;;;;287.90;41.22;;;22.40;53.30;;;;;;6294433;28;20028;-67
2022/10/04 13:26:00;;;;;;;303.00;53.63;;;22.50;53.00;;;;;;6296443;28;20046;-68
2022/10/04 13:29:27;;;;;;;414.70;82.07;;;22.40;53.10;;;;;;6316326;28;20486;-68
2022/10/04 13:32:41;;;;;;;272.95;58.05;;;22.50;52.90;;;;;;6314141;28;20027;-67
2022/10/04 13:35:45;;;;;;;274.25;57.30;;;22.50;52.80;;;;;;6295410;28;20534;-67
2022/10/04 13:39:08;;;;;;;351.08;76.43;;;22.50;52.60;;;;;;6296283;28;20074;-67
2022/10/04 13:42:30;;;;;;;442.75;113.40;;;22.50;52.80;;;;;;6294751;28;20017;-67
2022/10/04 13:46:01;;;;;;;459.48;116.68;;;22.50;53.50;;;;;;6294627;28;20040;-67
2022/10/04 13:49:39;;;;;;;490.63;123.30;;;22.60;52.80;;;;;;6295662;28;20047;-67
2022/10/04 13:59:38;;;;;;;467.70;129.98;;;22.50;52.90;;;;;;6289337;28;20445;-67
2022/10/04 14:02:44;;;;;;;420.80;123.80;;;22.50;52.90;;;;;;6293960;28;20473;-67
2022/10/04 14:06:10;;;;;;;413.17;122.10;;;22.50;53.10;;;;;;6294515;28;20378;-71
2022/10/04 14:09:52;;;;;;;339.27;104.85;;;22.50;53.10;;;;;;6294301;28;20058;-67
2022/10/04 14:13:18;;;;;;;343.35;103.22;;;22.40;52.90;;;;;;6293048;28;20037;-67
2022/10/04 14:16:50;;;;;;;334.55;103.00;;;22.40;52.90;;;;;;6295147;28;20052;-66
2022/10/04 14:19:59;;;;;;;308.92;99.13;;;22.40;53.30;;;;;;6294750;28;20067;-67
2022/10/04 14:23:29;;;;;;;305.35;93.82;;;22.40;53.50;;;;;;6294341;28;20106;-67
2022/10/04 14:27:05;;;;;;;292.33;91.53;;;22.30;53.60;;;;;;6293470;28;20445;-67
2022/10/04 14:30:13;;;;;;;;;;;22.30;53.60;;;;;;6293870;28;20496;-66
2022/10/04 14:33:42;;;;;;;244.27;83.15;;;22.30;53.60;;;;;;6293251;28;19913;-65
2022/10/04 14:37:14;;;;;;;231.48;80.60;;;22.30;53.60;;;;;;6293529;28;20025;-67
2022/10/04 14:40:36;;;;;;;225.75;79.38;;;22.20;53.60;;;;;;6312896;28;20045;-65
2022/10/04 14:44:14;;;;;;;214.77;76.63;;;22.30;53.70;;;;;;6319570;28;20077;-67
2022/10/04 14:47:53;;;;;;;212.38;74.20;;;22.20;53.60;;;;;;6319402;28;20028;-67
2022/10/04 14:51:14;;;;;;;192.80;69.63;;;22.20;53.60;;;;;;6296223;28;20021;-67
2022/10/04 14:54:29;;;;;;;191.85;68.75;;;22.20;53.70;;;;;;6293653;28;20386;-67
2022/10/04 14:58:10;;;;;;;181.13;66.75;;;22.20;53.70;;;;;;6294299;28;20031;-68
2022/10/04 15:01:42;;;;;;;164.15;64.38;;;22.10;53.60;;;;;;6294216;28;20024;-67
2022/10/04 15:04:55;;;;;;;171.52;64.03;;;22.10;53.60;;;;;;6292051;28;20444;-68
2022/10/04 15:08:12;;;;;;;164.25;63.15;;;22.20;53.80;;;;;;6297005;28;20521;-68
2022/10/04 15:11:38;;;;;;;159.82;61.33;;;22.10;53.70;;;;;;6298917;28;20088;-67
2022/10/04 15:15:00;;;;;;;157.30;58.35;;;22.10;53.70;;;;;;6283637;28;20040;-66
2022/10/04 15:18:11;;;;;;;142.07;55.15;;;22.10;53.70;;;;;;6296390;28;20078;-66
2022/10/04 15:21:29;;;;;;;137.88;53.92;;;22.10;53.70;;;;;;6298306;28;20029;-67
2022/10/04 15:24:50;;;;;;;128.07;51.08;;;22.10;53.60;;;;;;6296811;28;20029;-68
2022/10/04 15:27:56;;;;;;;131.25;52.53;;;22.10;53.70;;;;;;6298097;28;20037;-67
2022/10/04 15:31:22;;;;;;;142.30;52.53;;;22.10;53.60;;;;;;6296098;28;20497;-68
2022/10/04 15:34:49;;;;;;;115.15;48.25;;;22.20;53.70;;;;;;6277827;28;20060;-68
2022/10/04 15:38:05;;;;;;;120.57;48.28;;;22.20;53.70;;;;;;6298298;28;20515;-68
2022/10/04 15:41:24;;;;;;;114.85;46.90;;;22.10;53.70;;;;;;6298266;28;20539;-67
2022/10/04 15:44:37;;;;;;;101.22;45.45;;;22.10;53.70;;;;;;6297986;28;20476;-67
2022/10/04 15:47:56;;;;;;;103.53;43.97;;;22.10;53.70;;;;;;6298307;28;20502;-68
2022/10/04 15:51:33;;;;;;;116.55;44.47;;;22.10;53.80;;;;;;6297031;28;20063;-68
2022/10/04 15:55:12;;;;;;;101.47;42.30;;;22.10;53.70;;;;;;6297450;28;20048;-67
2022/10/04 15:58:43;;;;;;;100.70;43.05;;;22.10;53.60;;;;;;6298108;28;20095;-67
2022/10/04 16:02:21;;;;;;;99.00;40.33;;;22.10;53.60;;;;;;6298158;28;20040;-67
2022/10/04 16:05:24;;;;;;;94.68;40.90;;;22.10;53.70;;;;;;6297798;28;20028;-67
2022/10/04 16:08:55;;;;;;;95.38;40.67;;;22.10;53.80;;;;;;6297633;28;20124;-67
2022/10/04 16:12:19;;;;;;;82.75;37.15;;;22.10;53.70;;;;;;6296317;28;20111;-67
2022/10/04 16:15:31;;;;;;;85.20;38.53;;;22.10;53.80;;;;;;6295862;28;20033;-66
2022/10/04 16:19:08;;;;;;;87.90;38.05;;;22.10;53.90;;;;;;6295054;28;20062;-67
2022/10/04 16:22:18;;;;;;;83.80;37.40;;;22.00;53.90;;;;;;6294182;28;20017;-67
2022/10/04 16:25:25;;;;;;;83.00;37.33;;;22.00;54.00;;;;;;6294886;28;20028;-67
2022/10/04 16:28:38;;;;;;;80.57;34.53;;;22.00;53.90;;;;;;6295426;28;20029;-67
2022/10/04 16:32:09;;;;;;;74.30;35.63;;;22.00;54.10;;;;;;6295310;28;20028;-67
2022/10/04 16:35:30;;;;;;;73.95;33.90;;;22.00;54.10;;;;;;6294895;28;20025;-67
2022/10/04 16:38:35;;;;;;;79.45;34.97;;;22.00;54.10;;;;;;6295106;28;20032;-67
2022/10/04 16:41:44;;;;;;;67.72;32.45;;;22.00;54.10;;;;;;6294999;28;20046;-67
2022/10/04 16:45:20;;;;;;;70.00;32.85;;;22.00;54.10;;;;;;6294569;28;20466;-67
2022/10/04 16:48:48;;;;;;;68.88;31.67;;;22.00;54.20;;;;;;6294549;28;20041;-67
2022/10/04 16:52:16;;;;;;;64.97;30.42;;;21.90;54.10;;;;;;6293080;28;20031;-67
2022/10/04 16:55:25;;;;;;;72.28;31.05;;;21.90;54.20;;;;;;6293875;28;20509;-67
2022/10/04 16:58:26;;;;;;;61.33;30.40;;;21.90;54.20;;;;;;6294589;28;20102;-67
2022/10/04 17:01:32;;;;;;;61.28;30.27;;;21.90;54.30;;;;;;6291570;28;20336;-67
2022/10/04 17:04:37;;;;;;;63.85;30.40;;;21.90;54.20;;;;;;6293573;28;20059;-67
2022/10/04 17:08:19;;;;;;;64.45;28.55;;;21.90;54.30;;;;;;6312179;28;20028;-65
2022/10/04 17:11:32;;;;;;;58.20;28.48;;;21.90;54.30;;;;;;6319162;28;20032;-67
2022/10/04 17:15:26;;;;;;;54.65;26.85;;;21.90;54.40;;;;;;6295253;28;20518;-65